createdAt,value
2023-05-18T00:00:03.187Z,5.74
2023-05-18T00:02:30.640Z,5.66
2023-05-18T00:04:57.955Z,5.64
2023-05-18T00:07:24.832Z,5.88
2023-05-18T00:09:51.925Z,5.71
2023-05-18T00:12:18.997Z,5.74
2023-05-18T00:14:45.975Z,5.42
2023-05-18T00:17:15.004Z,5.43
2023-05-18T00:19:41.871Z,5.28
2023-05-18T00:22:10.335Z,5.08
2023-05-18T00:24:37.302Z,4.89
2023-05-18T00:27:04.491Z,4.91
2023-05-18T00:29:31.158Z,5.14
2023-05-18T00:31:58.264Z,5.03
2023-05-18T00:34:25.289Z,5.22
2023-05-18T00:36:52.332Z,5.17
2023-05-18T00:39:19.340Z,5.14
2023-05-18T00:41:46.768Z,5.08
2023-05-18T00:44:13.902Z,5.12
2023-05-18T00:46:41.943Z,5.13
2023-05-18T00:49:08.885Z,5.14
2023-05-18T00:51:35.848Z,5.11
2023-05-18T00:54:04.031Z,5.17
2023-05-18T00:56:34.378Z,5.13
2023-05-18T00:59:03.415Z,5.11
2023-05-18T01:01:36.569Z,5.11
2023-05-18T01:04:04.943Z,5.03
2023-05-18T01:06:41.258Z,5.10
2023-05-18T01:09:10.452Z,5.49
2023-05-18T01:11:56.383Z,5.62
2023-05-18T01:14:35.467Z,5.50
2023-05-18T01:17:29.668Z,5.72
2023-05-18T01:20:09.863Z,5.74
2023-05-18T01:23:10.463Z,5.92
2023-05-18T01:25:55.737Z,5.80
2023-05-18T01:28:31.970Z,5.89
2023-05-18T01:30:59.683Z,5.46
2023-05-18T01:33:26.692Z,5.36
2023-05-18T01:35:53.817Z,5.41
2023-05-18T01:38:24.437Z,5.11
2023-05-18T01:41:03.263Z,5.52
2023-05-18T01:43:50.325Z,5.50
2023-05-18T01:46:35.302Z,5.39
2023-05-18T01:49:09.966Z,5.42
2023-05-18T01:51:42.215Z,5.47
2023-05-18T01:54:11.866Z,5.47
2023-05-18T01:56:41.138Z,5.59
2023-05-18T01:59:08.632Z,5.55
2023-05-18T02:01:35.926Z,5.65
2023-05-18T02:04:03.301Z,5.71
2023-05-18T02:06:30.779Z,5.70
2023-05-18T02:08:57.810Z,5.72
2023-05-18T02:11:24.833Z,6.04
2023-05-18T02:13:51.694Z,5.77
2023-05-18T02:16:20.197Z,5.69
2023-05-18T02:18:47.411Z,5.84
2023-05-18T02:21:14.790Z,5.96
2023-05-18T02:23:42.080Z,6.25
2023-05-18T02:26:08.998Z,5.93
2023-05-18T02:28:36.157Z,5.82
2023-05-18T02:31:12.216Z,5.73
2023-05-18T02:33:40.976Z,5.72
2023-05-18T02:36:11.206Z,5.63
2023-05-18T02:38:43.012Z,5.82
2023-05-18T02:41:10.808Z,5.74
2023-05-18T02:43:37.957Z,5.70
2023-05-18T02:46:05.124Z,5.80
2023-05-18T02:48:32.476Z,5.89
2023-05-18T02:50:59.427Z,6.07
2023-05-18T02:53:26.959Z,5.90
2023-05-18T02:55:59.593Z,5.86
2023-05-18T02:58:27.082Z,5.96
2023-05-18T03:00:55.599Z,5.98
2023-05-18T03:03:24.246Z,5.94
2023-05-18T03:05:53.243Z,5.96
2023-05-18T03:08:21.502Z,6.06
2023-05-18T03:10:49.478Z,6.09
2023-05-18T03:13:16.397Z,6.12
2023-05-18T03:15:45.692Z,5.95
2023-05-18T03:18:13.014Z,6.36
2023-05-18T03:20:40.239Z,6.18
2023-05-18T03:23:07.204Z,6.17
2023-05-18T03:25:37.533Z,6.12
2023-05-18T03:28:05.712Z,6.05
2023-05-18T03:30:35.925Z,6.19
2023-05-18T03:33:04.042Z,6.17
2023-05-18T03:35:31.441Z,6.34
2023-05-18T03:37:58.512Z,6.48
2023-05-18T03:40:25.552Z,6.72
2023-05-18T03:42:52.527Z,6.63
2023-05-18T03:45:19.580Z,6.79
2023-05-18T03:47:47.115Z,6.92
2023-05-18T03:50:14.295Z,6.85
2023-05-18T03:52:42.965Z,7.16
2023-05-18T03:55:10.360Z,7.19
2023-05-18T03:57:37.370Z,7.25
2023-05-18T04:00:08.782Z,7.28
2023-05-18T04:02:36.687Z,7.42
2023-05-18T04:05:04.292Z,7.77
2023-05-18T04:07:31.153Z,7.90
2023-05-18T04:09:58.182Z,7.95
2023-05-18T04:12:25.073Z,7.90
2023-05-18T04:14:51.947Z,8.03
2023-05-18T04:17:23.445Z,8.20
2023-05-18T04:19:50.843Z,8.20
2023-05-18T04:22:17.884Z,8.39
2023-05-18T04:24:47.790Z,8.53
2023-05-18T04:27:15.617Z,8.52
2023-05-18T04:29:44.028Z,8.70
2023-05-18T04:32:11.363Z,8.84
2023-05-18T04:34:38.621Z,9.02
2023-05-18T04:37:06.057Z,9.08
2023-05-18T04:39:34.941Z,9.17
2023-05-18T04:42:04.914Z,9.26
2023-05-18T04:44:35.471Z,9.42
2023-05-18T04:47:03.047Z,9.46
2023-05-18T04:49:32.234Z,9.85
2023-05-18T04:51:59.635Z,9.98
2023-05-18T04:54:31.141Z,9.94
2023-05-18T04:57:00.028Z,10.06
2023-05-18T04:59:29.225Z,10.14
2023-05-18T05:01:56.369Z,10.31
2023-05-18T05:04:24.024Z,10.49
2023-05-18T05:06:51.058Z,10.56
2023-05-18T05:09:18.219Z,10.48
2023-05-18T05:11:45.560Z,10.46
2023-05-18T05:14:12.604Z,10.51
2023-05-18T05:16:40.299Z,10.12
2023-05-18T05:19:07.624Z,10.34
2023-05-18T05:21:34.646Z,10.48
2023-05-18T05:24:05.235Z,10.75
2023-05-18T05:26:32.146Z,11.02
2023-05-18T05:28:59.209Z,11.40
2023-05-18T05:31:26.257Z,11.46
2023-05-18T05:33:53.394Z,11.54
2023-05-18T05:36:20.490Z,11.71
2023-05-18T05:38:47.638Z,11.81
2023-05-18T05:41:14.884Z,11.97
2023-05-18T05:43:42.096Z,12.22
2023-05-18T05:46:09.034Z,12.44
2023-05-18T05:48:36.183Z,12.15
2023-05-18T05:51:03.584Z,12.01
2023-05-18T05:53:30.687Z,11.98
2023-05-18T05:55:57.626Z,12.19
2023-05-18T05:58:24.472Z,12.23
2023-05-18T06:00:51.602Z,12.14
2023-05-18T06:03:19.002Z,11.73
2023-05-18T06:05:45.964Z,12.05
2023-05-18T06:08:12.870Z,12.25
2023-05-18T06:10:41.445Z,13.04
2023-05-18T06:13:08.562Z,13.15
2023-05-18T06:15:35.453Z,12.67
2023-05-18T06:18:02.638Z,13.02
2023-05-18T06:20:29.856Z,13.34
2023-05-18T06:22:57.607Z,12.76
2023-05-18T06:25:24.673Z,12.80
2023-05-18T06:27:52.269Z,13.18
2023-05-18T06:30:19.223Z,13.30
2023-05-18T06:32:46.210Z,13.58
2023-05-18T06:35:13.166Z,13.85
2023-05-18T06:37:40.170Z,14.02
2023-05-18T06:40:08.580Z,14.19
2023-05-18T06:42:35.596Z,14.46
2023-05-18T06:45:03.774Z,14.38
2023-05-18T06:47:30.684Z,14.27
2023-05-18T06:49:57.974Z,14.36
2023-05-18T06:52:26.996Z,14.78
2023-05-18T06:54:54.079Z,14.74
2023-05-18T06:57:21.124Z,14.82
2023-05-18T06:59:53.811Z,15.18
2023-05-18T07:02:21.582Z,15.12
2023-05-18T07:04:49.434Z,15.14
2023-05-18T07:07:19.545Z,15.00
2023-05-18T07:09:46.721Z,15.20
2023-05-18T07:12:14.100Z,15.33
2023-05-18T07:14:40.991Z,15.63
2023-05-18T07:17:08.070Z,15.75
2023-05-18T07:19:35.624Z,15.85
2023-05-18T07:22:04.860Z,16.18
2023-05-18T07:24:32.001Z,16.54
2023-05-18T07:27:00.752Z,17.02
2023-05-18T07:29:28.007Z,17.08
2023-05-18T07:31:55.110Z,17.06
2023-05-18T07:34:24.434Z,17.54
2023-05-18T07:36:51.754Z,17.72
2023-05-18T07:39:19.835Z,17.85
2023-05-18T07:41:48.759Z,18.17
2023-05-18T07:44:16.075Z,18.50
2023-05-18T07:46:44.365Z,19.12
2023-05-18T07:49:11.421Z,18.98
2023-05-18T07:51:38.391Z,19.22
2023-05-18T07:54:05.739Z,18.84
2023-05-18T07:56:32.741Z,19.31
2023-05-18T07:58:59.807Z,19.95
2023-05-18T08:01:28.460Z,19.86
2023-05-18T08:03:55.477Z,19.96
2023-05-18T08:06:22.708Z,21.16
2023-05-18T08:08:50.056Z,22.03
2023-05-18T08:11:16.971Z,22.81
2023-05-18T08:13:43.802Z,22.72
2023-05-18T08:16:12.257Z,21.94
2023-05-18T08:18:40.015Z,22.04
2023-05-18T08:21:09.765Z,22.13
2023-05-18T08:23:37.609Z,22.29
2023-05-18T08:26:05.101Z,22.10
2023-05-18T08:28:32.961Z,22.29
2023-05-18T08:31:00.014Z,22.57
2023-05-18T08:33:27.236Z,22.98
2023-05-18T08:35:54.376Z,23.63
2023-05-18T08:38:21.193Z,23.94
2023-05-18T08:41:13.129Z,23.84
2023-05-18T08:43:46.050Z,23.64
2023-05-18T08:46:33.482Z,25.95
2023-05-18T08:49:01.922Z,26.40
2023-05-18T08:51:33.772Z,28.23
2023-05-18T08:54:01.089Z,27.62
2023-05-18T08:56:31.784Z,24.77
2023-05-18T08:58:59.498Z,23.52
2023-05-18T09:01:30.335Z,30.29
2023-05-18T09:03:58.194Z,34.14
2023-05-18T09:06:25.538Z,37.13
2023-05-18T09:08:58.595Z,39.50
2023-05-18T09:11:27.415Z,41.16
2023-05-18T09:13:55.438Z,42.73
2023-05-18T09:16:22.488Z,42.16
2023-05-18T09:18:49.733Z,37.99
2023-05-18T09:21:16.913Z,39.44
2023-05-18T09:23:44.929Z,40.88
2023-05-18T09:26:13.485Z,43.04
2023-05-18T09:28:42.144Z,44.71
2023-05-18T09:31:12.945Z,44.61
2023-05-18T09:33:40.944Z,40.35
2023-05-18T09:36:10.665Z,43.31
2023-05-18T09:38:38.878Z,44.87
2023-05-18T09:41:11.272Z,41.97
2023-05-18T09:43:39.117Z,43.39
2023-05-18T09:46:10.320Z,44.32
2023-05-18T09:48:41.154Z,45.07
2023-05-18T09:51:08.315Z,45.56
2023-05-18T09:53:37.527Z,46.45
2023-05-18T09:56:07.043Z,47.79
2023-05-18T09:58:34.818Z,42.75
2023-05-18T10:01:03.295Z,45.44
2023-05-18T10:03:38.799Z,45.84
2023-05-18T10:06:10.000Z,45.59
2023-05-18T10:08:38.080Z,46.38
2023-05-18T10:11:06.311Z,46.82
2023-05-18T10:13:34.792Z,47.79
2023-05-18T10:16:07.974Z,46.98
2023-05-18T10:18:36.858Z,45.49
2023-05-18T10:21:07.168Z,43.69
2023-05-18T10:23:40.694Z,43.73
2023-05-18T10:26:10.040Z,39.68
2023-05-18T10:28:44.866Z,34.58
2023-05-18T10:31:13.079Z,33.11
2023-05-18T10:33:40.629Z,38.75
2023-05-18T10:36:09.498Z,41.03
2023-05-18T10:38:40.103Z,40.93
2023-05-18T10:41:08.282Z,41.73
2023-05-18T10:43:36.876Z,42.50
2023-05-18T10:46:08.100Z,44.16
2023-05-18T10:48:39.229Z,46.45
2023-05-18T10:51:08.211Z,46.46
2023-05-18T10:53:36.791Z,43.63
2023-05-18T10:56:03.971Z,40.42
2023-05-18T10:58:33.207Z,39.40
2023-05-18T11:01:03.533Z,37.24
2023-05-18T11:03:32.998Z,39.21
2023-05-18T11:06:11.572Z,40.71
2023-05-18T11:08:49.137Z,40.56
2023-05-18T11:11:18.871Z,40.72
2023-05-18T11:13:49.623Z,41.36
2023-05-18T11:16:18.687Z,41.96
2023-05-18T11:18:50.844Z,41.65
2023-05-18T11:21:36.546Z,42.49
2023-05-18T11:24:25.670Z,42.77
2023-05-18T11:27:16.547Z,42.75
2023-05-18T11:29:47.818Z,43.47
2023-05-18T11:32:31.248Z,41.22
2023-05-18T11:34:59.355Z,41.61
2023-05-18T11:37:47.641Z,41.22
2023-05-18T11:40:48.602Z,39.07
2023-05-18T11:43:24.199Z,36.01
2023-05-18T11:45:57.314Z,36.09
2023-05-18T11:48:27.760Z,35.89
2023-05-18T11:50:56.138Z,34.70
2023-05-18T11:53:27.471Z,32.18
2023-05-18T11:55:57.707Z,31.08
2023-05-18T11:58:25.672Z,27.70
2023-05-18T12:00:53.226Z,27.31
2023-05-18T12:03:25.575Z,26.17
2023-05-18T12:05:53.739Z,26.09
2023-05-18T12:08:20.858Z,26.18
2023-05-18T12:10:49.563Z,25.80
2023-05-18T12:13:17.919Z,24.84
2023-05-18T12:15:45.102Z,24.37
2023-05-18T12:18:12.816Z,23.32
2023-05-18T12:20:41.214Z,22.16
2023-05-18T12:23:08.428Z,21.15
2023-05-18T12:25:36.813Z,20.90
2023-05-18T12:28:05.088Z,20.44
2023-05-18T12:30:36.119Z,20.31
2023-05-18T12:33:04.061Z,19.61
2023-05-18T12:35:32.003Z,19.52
2023-05-18T12:38:02.969Z,19.95
2023-05-18T12:40:44.734Z,20.42
2023-05-18T12:43:12.172Z,20.99
2023-05-18T12:45:39.162Z,21.32
2023-05-18T12:48:07.872Z,20.66
2023-05-18T12:50:37.377Z,20.42
2023-05-18T12:53:04.748Z,20.31
2023-05-18T12:55:35.005Z,20.35
2023-05-18T12:58:05.752Z,20.65
2023-05-18T13:00:34.608Z,19.55
2023-05-18T13:03:11.882Z,18.57
2023-05-18T13:05:42.885Z,17.99
2023-05-18T13:08:13.704Z,17.57
2023-05-18T13:10:44.174Z,18.57
2023-05-18T13:13:11.302Z,19.38
2023-05-18T13:15:39.490Z,20.17
2023-05-18T13:18:12.119Z,20.26
2023-05-18T13:20:51.592Z,20.15
2023-05-18T13:23:21.300Z,20.33
2023-05-18T13:25:48.734Z,19.06
2023-05-18T13:28:18.302Z,19.39
2023-05-18T13:30:47.338Z,19.69
2023-05-18T13:33:14.853Z,19.66
2023-05-18T13:35:43.199Z,19.46
2023-05-18T13:38:14.377Z,18.75
2023-05-18T13:40:42.380Z,17.85
2023-05-18T13:43:10.910Z,17.73
2023-05-18T13:45:39.833Z,17.35
2023-05-18T13:48:09.993Z,18.20
2023-05-18T13:50:37.965Z,18.87
2023-05-18T13:53:05.205Z,18.52
2023-05-18T13:55:33.586Z,18.14
2023-05-18T13:58:01.335Z,17.43
2023-05-18T14:00:28.826Z,17.72
2023-05-18T14:02:56.898Z,18.32
2023-05-18T14:05:24.456Z,17.81
2023-05-18T14:07:54.773Z,17.47
2023-05-18T14:10:21.857Z,17.53
2023-05-18T14:12:49.581Z,16.93
2023-05-18T14:15:16.555Z,17.00
2023-05-18T14:17:46.413Z,16.80
2023-05-18T14:20:13.527Z,16.76
2023-05-18T14:22:41.051Z,18.00
2023-05-18T14:25:08.491Z,18.92
2023-05-18T14:27:35.661Z,19.43
2023-05-18T14:30:03.040Z,19.87
2023-05-18T14:32:30.002Z,19.50
2023-05-18T14:34:58.351Z,19.57
2023-05-18T14:37:25.410Z,18.85
2023-05-18T14:39:52.595Z,18.02
2023-05-18T14:42:19.567Z,17.93
2023-05-18T14:44:47.252Z,18.17
2023-05-18T14:47:14.295Z,17.77
2023-05-18T14:49:41.327Z,17.13
2023-05-18T14:52:08.238Z,17.10
2023-05-18T14:54:35.288Z,17.64
2023-05-18T14:57:02.259Z,18.13
2023-05-18T14:59:29.393Z,17.91
2023-05-18T15:01:56.577Z,17.24
2023-05-18T15:04:23.787Z,17.48
2023-05-18T15:06:51.115Z,18.09
2023-05-18T15:09:18.168Z,18.26
2023-05-18T15:11:45.865Z,18.20
2023-05-18T15:14:12.712Z,18.35
2023-05-18T15:16:39.822Z,17.71
2023-05-18T15:19:06.972Z,17.54
2023-05-18T15:21:34.223Z,17.30
2023-05-18T15:24:01.106Z,17.47
2023-05-18T15:26:28.333Z,17.91
2023-05-18T15:28:55.204Z,18.29
2023-05-18T15:31:22.347Z,18.69
2023-05-18T15:33:49.255Z,18.19
2023-05-18T15:36:16.270Z,17.36
2023-05-18T15:38:43.400Z,17.78
2023-05-18T15:41:10.531Z,17.53
2023-05-18T15:43:37.768Z,17.43
2023-05-18T15:46:05.268Z,17.74
2023-05-18T15:48:32.288Z,17.63
2023-05-18T15:50:59.527Z,17.55
2023-05-18T15:53:26.855Z,17.75
2023-05-18T15:55:58.788Z,17.50
2023-05-18T15:58:26.761Z,17.56
2023-05-18T16:00:54.142Z,17.97
2023-05-18T16:03:21.569Z,17.96
2023-05-18T16:05:48.777Z,17.78
2023-05-18T16:08:15.722Z,17.53
2023-05-18T16:10:43.061Z,17.42
2023-05-18T16:13:10.232Z,17.17
2023-05-18T16:15:37.765Z,17.61
2023-05-18T16:18:05.382Z,17.19
2023-05-18T16:20:32.706Z,17.54
2023-05-18T16:23:00.122Z,17.83
2023-05-18T16:25:27.075Z,17.98
2023-05-18T16:27:54.199Z,18.10
2023-05-18T16:30:21.247Z,17.94
2023-05-18T16:32:48.405Z,17.85
2023-05-18T16:35:15.898Z,17.87
2023-05-18T16:37:42.848Z,18.03
2023-05-18T16:40:10.869Z,17.47
2023-05-18T16:42:38.163Z,17.79
2023-05-18T16:45:05.240Z,17.97
2023-05-18T16:47:32.932Z,17.74
2023-05-18T16:50:02.726Z,17.54
2023-05-18T16:52:29.642Z,17.50
2023-05-18T16:54:56.577Z,17.80
2023-05-18T16:57:26.631Z,17.79
2023-05-18T16:59:54.592Z,17.96
2023-05-18T17:02:21.714Z,17.98
2023-05-18T17:04:50.143Z,17.75
2023-05-18T17:07:17.339Z,17.30
2023-05-18T17:09:44.778Z,16.45
2023-05-18T17:12:12.300Z,16.17
2023-05-18T17:14:39.454Z,16.42
2023-05-18T17:17:07.383Z,15.98
2023-05-18T17:19:39.500Z,16.25
2023-05-18T17:22:06.656Z,16.30
2023-05-18T17:24:33.604Z,16.16
2023-05-18T17:27:00.417Z,15.71
2023-05-18T17:29:27.786Z,15.42
2023-05-18T17:31:55.150Z,15.36
2023-05-18T17:34:23.120Z,15.13
2023-05-18T17:36:50.332Z,15.16
2023-05-18T17:39:17.240Z,15.01
2023-05-18T17:41:44.810Z,14.82
2023-05-18T17:44:14.380Z,14.67
2023-05-18T17:46:42.783Z,14.64
2023-05-18T17:49:09.915Z,14.46
2023-05-18T17:51:37.018Z,14.53
2023-05-18T17:54:04.480Z,14.56
2023-05-18T17:56:32.807Z,14.27
2023-05-18T17:58:59.825Z,14.33
2023-05-18T18:01:27.695Z,14.15
2023-05-18T18:03:55.572Z,14.27
2023-05-18T18:06:23.400Z,14.27
2023-05-18T18:08:51.667Z,14.03
2023-05-18T18:11:18.631Z,13.85
2023-05-18T18:13:45.901Z,13.89
2023-05-18T18:16:13.159Z,13.74
2023-05-18T18:18:40.294Z,13.63
2023-05-18T18:21:07.722Z,13.51
2023-05-18T18:23:36.254Z,13.67
2023-05-18T18:26:04.426Z,13.63
2023-05-18T18:28:32.124Z,13.59
2023-05-18T18:30:59.401Z,13.61
2023-05-18T18:33:29.262Z,13.40
2023-05-18T18:35:57.306Z,13.44
2023-05-18T18:38:27.211Z,13.31
2023-05-18T18:41:00.148Z,13.27
2023-05-18T18:43:28.448Z,13.09
2023-05-18T18:45:57.365Z,12.92
2023-05-18T18:48:25.383Z,13.11
2023-05-18T18:50:53.141Z,12.87
2023-05-18T18:53:29.403Z,12.80
2023-05-18T18:55:57.447Z,12.82
2023-05-18T18:58:24.726Z,12.69
2023-05-18T19:00:51.772Z,12.66
2023-05-18T19:03:18.616Z,12.66
2023-05-18T19:05:45.811Z,12.50
2023-05-18T19:08:12.930Z,12.44
2023-05-18T19:10:39.928Z,12.40
2023-05-18T19:13:07.113Z,12.25
2023-05-18T19:15:37.002Z,12.12
2023-05-18T19:18:04.270Z,12.08
2023-05-18T19:20:31.596Z,11.90
2023-05-18T19:22:58.592Z,11.97
2023-05-18T19:25:26.521Z,11.81
2023-05-18T19:27:54.248Z,11.65
2023-05-18T19:30:22.636Z,11.54
2023-05-18T19:32:51.744Z,11.29
2023-05-18T19:35:20.629Z,11.27
2023-05-18T19:37:48.177Z,11.10
2023-05-18T19:40:16.408Z,10.97
2023-05-18T19:42:43.973Z,10.90
2023-05-18T19:45:11.192Z,10.73
2023-05-18T19:47:38.232Z,10.65
2023-05-18T19:50:06.413Z,10.73
2023-05-18T19:52:33.921Z,10.63
2023-05-18T19:55:02.376Z,10.49
2023-05-18T19:57:29.810Z,10.63
2023-05-18T19:59:58.083Z,10.46
2023-05-18T20:02:25.967Z,10.31
2023-05-18T20:04:53.838Z,10.49
2023-05-18T20:07:22.945Z,10.38
2023-05-18T20:09:50.184Z,10.18
2023-05-18T20:12:17.297Z,10.09
2023-05-18T20:14:46.024Z,10.02
2023-05-18T20:17:14.274Z,10.08
2023-05-18T20:19:45.725Z,9.94
2023-05-18T20:22:12.685Z,9.95
2023-05-18T20:24:42.590Z,9.77
2023-05-18T20:27:09.568Z,9.64
2023-05-18T20:29:36.458Z,9.51
2023-05-18T20:32:03.335Z,9.42
2023-05-18T20:34:30.310Z,9.30
2023-05-18T20:36:57.200Z,9.26
2023-05-18T20:39:26.200Z,9.31
2023-05-18T20:41:53.944Z,9.23
2023-05-18T20:44:23.381Z,9.02
2023-05-18T20:46:53.136Z,8.95
2023-05-18T20:49:25.094Z,8.76
2023-05-18T20:51:52.040Z,8.71
2023-05-18T20:54:19.360Z,8.60
2023-05-18T20:56:46.419Z,8.50
2023-05-18T20:59:16.281Z,8.47
2023-05-18T21:01:43.652Z,8.42
2023-05-18T21:04:12.842Z,8.34
2023-05-18T21:06:41.295Z,8.42
2023-05-18T21:09:08.465Z,8.41
2023-05-18T21:11:35.731Z,8.31
2023-05-18T21:14:02.643Z,8.26
2023-05-18T21:16:29.842Z,8.23
2023-05-18T21:18:57.012Z,8.15
2023-05-18T21:21:23.838Z,8.13
2023-05-18T21:23:51.120Z,8.01
2023-05-18T21:26:17.974Z,7.98
2023-05-18T21:28:45.032Z,7.90
2023-05-18T21:31:12.320Z,7.97
2023-05-18T21:33:39.550Z,7.90
2023-05-18T21:36:06.573Z,7.88
2023-05-18T21:38:33.495Z,7.80
2023-05-18T21:41:00.788Z,7.89
2023-05-18T21:43:27.750Z,7.97
2023-05-18T21:45:54.650Z,7.84
2023-05-18T21:48:21.457Z,7.78
2023-05-18T21:50:48.385Z,7.68
2023-05-18T21:53:15.905Z,7.76
2023-05-18T21:55:42.869Z,7.77
2023-05-18T21:58:10.028Z,7.47
2023-05-18T22:00:38.406Z,7.33
2023-05-18T22:03:05.570Z,7.22
2023-05-18T22:05:34.217Z,7.46
2023-05-18T22:08:01.122Z,7.51
2023-05-18T22:10:28.365Z,7.29
2023-05-18T22:12:55.383Z,6.99
2023-05-18T22:15:22.947Z,6.85
2023-05-18T22:17:50.035Z,6.79
2023-05-18T22:20:17.433Z,6.80
2023-05-18T22:22:44.600Z,6.69
2023-05-18T22:25:11.737Z,6.65
2023-05-18T22:27:39.112Z,6.67
2023-05-18T22:30:07.484Z,6.57
2023-05-18T22:32:34.766Z,6.54
2023-05-18T22:35:02.214Z,6.53
2023-05-18T22:37:29.059Z,6.53
2023-05-18T22:39:56.140Z,6.34
2023-05-18T22:42:23.027Z,6.41
2023-05-18T22:44:49.889Z,6.61
2023-05-18T22:47:23.835Z,6.30
2023-05-18T22:49:51.238Z,6.43
2023-05-18T22:52:18.697Z,6.34
2023-05-18T22:54:46.004Z,6.25
2023-05-18T22:57:13.389Z,5.89
2023-05-18T22:59:40.268Z,5.69
2023-05-18T23:02:07.538Z,5.63
2023-05-18T23:04:34.949Z,5.65
2023-05-18T23:07:02.063Z,5.87
2023-05-18T23:09:30.673Z,5.56
2023-05-18T23:11:59.765Z,5.49
2023-05-18T23:14:28.510Z,5.34
2023-05-18T23:16:58.473Z,5.55
2023-05-18T23:19:27.098Z,5.45
2023-05-18T23:21:54.244Z,5.23
2023-05-18T23:24:21.702Z,5.35
2023-05-18T23:26:48.640Z,5.16
2023-05-18T23:29:15.641Z,5.11
2023-05-18T23:31:42.570Z,5.29
2023-05-18T23:34:09.864Z,5.17
2023-05-18T23:36:39.874Z,5.17
2023-05-18T23:39:07.446Z,5.28
2023-05-18T23:41:36.221Z,5.28
2023-05-18T23:44:03.670Z,5.07
2023-05-18T23:46:31.661Z,5.21
2023-05-18T23:48:59.843Z,5.07
2023-05-18T23:51:30.132Z,5.08
2023-05-18T23:53:58.865Z,5.06
2023-05-18T23:56:26.073Z,5.02
2023-05-18T23:58:53.412Z,4.91
